createdAt,value
2019-02-28T00:00:41.465Z,36.00
2019-02-28T00:01:43.245Z,35.50
2019-02-28T00:02:41.790Z,36.80
2019-02-28T00:03:40.802Z,37.10
2019-02-28T00:04:40.775Z,36.60
2019-02-28T00:05:40.760Z,37.60
2019-02-28T00:06:44.064Z,36.80
2019-02-28T00:07:40.730Z,38.40
2019-02-28T00:08:40.712Z,37.70
2019-02-28T00:09:40.709Z,38.10
2019-02-28T00:10:40.710Z,38.10
2019-02-28T00:11:40.687Z,38.00
2019-02-28T00:12:40.708Z,38.10
2019-02-28T00:13:40.717Z,37.90
2019-02-28T00:14:40.653Z,37.90
2019-02-28T00:15:40.713Z,38.10
2019-02-28T00:16:40.630Z,35.50
2019-02-28T00:17:43.538Z,36.50
2019-02-28T00:18:40.647Z,36.30
2019-02-28T00:19:40.593Z,36.60
2019-02-28T00:20:40.582Z,36.10
2019-02-28T00:21:41.313Z,36.50
2019-02-28T00:22:40.568Z,39.90
2019-02-28T00:23:40.585Z,37.70
2019-02-28T00:24:40.585Z,38.30
2019-02-28T00:25:40.531Z,39.20
2019-02-28T00:26:46.533Z,40.20
2019-02-28T00:27:41.548Z,38.50
2019-02-28T00:28:40.499Z,39.30
2019-02-28T00:29:40.505Z,39.80
2019-02-28T00:30:40.901Z,40.10
2019-02-28T00:31:40.468Z,40.90
2019-02-28T00:32:40.445Z,39.30
2019-02-28T00:33:40.448Z,39.40
2019-02-28T00:34:40.446Z,39.80
2019-02-28T00:35:40.414Z,39.40
2019-02-28T00:36:40.459Z,39.30
2019-02-28T00:37:40.400Z,39.80
2019-02-28T00:38:40.393Z,38.90
2019-02-28T00:39:40.406Z,40.40
2019-02-28T00:40:40.374Z,39.90
2019-02-28T00:41:44.492Z,40.00
2019-02-28T00:42:40.346Z,39.00
2019-02-28T00:43:40.339Z,38.50
2019-02-28T00:44:40.315Z,40.30
2019-02-28T00:45:40.327Z,39.40
2019-02-28T00:46:43.998Z,39.70
2019-02-28T00:47:40.291Z,40.10
2019-02-28T00:48:40.301Z,39.50
2019-02-28T00:49:40.261Z,40.50
2019-02-28T00:50:40.251Z,40.00
2019-02-28T00:51:40.276Z,40.50
2019-02-28T00:52:40.230Z,42.10
2019-02-28T00:53:40.223Z,42.30
2019-02-28T00:54:44.376Z,42.80
2019-02-28T00:55:40.194Z,44.00
2019-02-28T00:56:40.220Z,43.10
2019-02-28T00:57:40.179Z,43.70
2019-02-28T00:58:40.165Z,43.10
2019-02-28T00:59:40.162Z,43.90
2019-02-28T01:00:40.157Z,42.90
2019-02-28T01:01:40.128Z,44.60
2019-02-28T01:02:40.227Z,45.60
2019-02-28T01:03:40.123Z,44.10
2019-02-28T01:04:40.094Z,45.80
2019-02-28T01:05:40.099Z,44.30
2019-02-28T01:06:41.778Z,44.80
2019-02-28T01:07:40.222Z,45.20
2019-02-28T01:08:40.093Z,44.50
2019-02-28T01:09:40.034Z,44.10
2019-02-28T01:10:40.082Z,46.30
2019-02-28T01:11:40.024Z,45.50
2019-02-28T01:12:40.017Z,46.00
2019-02-28T01:13:40.002Z,45.60
2019-02-28T01:14:40.029Z,45.60
2019-02-28T01:15:44.482Z,46.20
2019-02-28T01:16:41.412Z,45.70
2019-02-28T01:17:39.965Z,45.70
2019-02-28T01:18:39.958Z,47.10
2019-02-28T01:19:41.238Z,46.30
2019-02-28T01:20:39.954Z,45.70
2019-02-28T01:21:39.938Z,47.00
2019-02-28T01:22:39.900Z,46.20
2019-02-28T01:23:39.889Z,47.30
2019-02-28T01:24:39.885Z,47.00
2019-02-28T01:25:40.252Z,45.90
2019-02-28T01:26:39.858Z,47.20
2019-02-28T01:27:39.839Z,47.00
2019-02-28T01:28:39.838Z,47.60
2019-02-28T01:29:39.813Z,47.00
2019-02-28T01:30:40.560Z,48.30
2019-02-28T01:31:42.596Z,47.40
2019-02-28T01:32:39.798Z,48.50
2019-02-28T01:33:39.810Z,48.50
2019-02-28T01:34:39.766Z,48.70
2019-02-28T01:35:40.760Z,48.20
2019-02-28T01:36:39.737Z,48.80
2019-02-28T01:37:39.746Z,49.40
2019-02-28T01:38:39.744Z,48.80
2019-02-28T01:39:39.708Z,50.10
2019-02-28T01:40:39.725Z,48.30
2019-02-28T01:41:42.251Z,48.30
2019-02-28T01:42:40.734Z,48.80
2019-02-28T01:43:39.681Z,48.10
2019-02-28T01:44:39.655Z,47.40
2019-02-28T01:45:43.451Z,48.20
2019-02-28T01:46:39.639Z,49.80
2019-02-28T01:47:39.618Z,47.40
2019-02-28T01:48:39.639Z,48.30
2019-02-28T01:49:39.628Z,49.10
2019-02-28T01:50:39.633Z,48.70
2019-02-28T01:51:39.583Z,50.30
2019-02-28T01:52:44.550Z,48.50
2019-02-28T01:53:40.591Z,49.30
2019-02-28T01:54:39.587Z,50.00
2019-02-28T01:55:39.559Z,49.10
2019-02-28T01:56:39.526Z,49.60
2019-02-28T01:57:44.145Z,49.30
2019-02-28T01:58:39.504Z,50.20
2019-02-28T01:59:39.570Z,48.60
2019-02-28T02:00:39.513Z,50.20
2019-02-28T02:01:39.503Z,50.90
2019-02-28T02:02:39.465Z,49.60
2019-02-28T02:03:40.641Z,49.00
2019-02-28T02:04:39.443Z,50.40
2019-02-28T02:05:39.472Z,50.00
2019-02-28T02:06:39.443Z,50.20
2019-02-28T02:07:39.410Z,50.30
2019-02-28T02:08:39.398Z,49.00
2019-02-28T02:09:39.383Z,50.30
2019-02-28T02:10:39.433Z,50.00
2019-02-28T02:11:39.363Z,50.10
2019-02-28T02:12:39.366Z,50.30
2019-02-28T02:13:39.341Z,51.20
2019-02-28T02:14:39.364Z,51.20
2019-02-28T02:15:39.334Z,51.80
2019-02-28T02:16:39.335Z,50.70
2019-02-28T02:17:39.323Z,50.50
2019-02-28T02:18:40.270Z,51.00
2019-02-28T02:19:39.291Z,50.30
2019-02-28T02:20:39.274Z,49.50
2019-02-28T02:21:39.313Z,49.70
2019-02-28T02:22:40.631Z,51.10
2019-02-28T02:23:40.236Z,51.40
2019-02-28T02:24:39.242Z,51.20
2019-02-28T02:25:39.303Z,51.10
2019-02-28T02:26:39.213Z,51.90
2019-02-28T02:27:39.233Z,50.30
2019-02-28T02:28:39.176Z,52.20
2019-02-28T02:29:39.174Z,51.00
2019-02-28T02:30:39.225Z,50.40
2019-02-28T02:31:39.151Z,51.60
2019-02-28T02:32:39.228Z,52.40
2019-02-28T02:33:39.152Z,51.30
2019-02-28T02:34:39.124Z,51.90
2019-02-28T02:35:42.154Z,52.20
2019-02-28T02:36:39.097Z,52.10
2019-02-28T02:37:39.091Z,53.50
2019-02-28T02:38:41.578Z,52.60
2019-02-28T02:39:39.070Z,53.10
2019-02-28T02:40:39.059Z,51.90
2019-02-28T02:41:39.050Z,52.30
2019-02-28T02:42:39.039Z,51.60
2019-02-28T02:43:39.038Z,51.30
2019-02-28T02:44:39.024Z,53.70
2019-02-28T02:45:43.281Z,51.40
2019-02-28T02:46:38.994Z,51.10
2019-02-28T02:47:38.986Z,51.70
2019-02-28T02:48:42.356Z,51.60
2019-02-28T02:49:38.956Z,50.20
2019-02-28T02:50:38.959Z,51.40
2019-02-28T02:51:38.963Z,52.10
2019-02-28T02:52:38.919Z,52.10
2019-02-28T02:53:41.892Z,51.60
2019-02-28T02:54:38.993Z,52.60
2019-02-28T02:55:38.894Z,51.80
2019-02-28T02:56:42.006Z,52.40
2019-02-28T02:57:38.891Z,51.70
2019-02-28T02:58:38.905Z,52.20
2019-02-28T02:59:39.469Z,52.80
2019-02-28T03:00:38.843Z,52.40
2019-02-28T03:01:38.839Z,52.40
2019-02-28T03:02:38.848Z,54.60
2019-02-28T03:03:42.956Z,51.50
2019-02-28T03:04:39.831Z,51.90
2019-02-28T03:05:38.785Z,52.90
2019-02-28T03:06:38.788Z,52.90
2019-02-28T03:07:38.777Z,53.40
2019-02-28T03:08:38.818Z,52.90
2019-02-28T03:09:43.392Z,53.40
2019-02-28T03:10:39.779Z,52.70
2019-02-28T03:11:38.741Z,53.30
2019-02-28T03:12:38.720Z,55.60
2019-02-28T03:13:43.631Z,54.20
2019-02-28T03:14:39.717Z,53.10
2019-02-28T03:15:38.709Z,54.10
2019-02-28T03:16:38.669Z,52.80
2019-02-28T03:17:38.695Z,53.90
2019-02-28T03:18:38.665Z,54.90
2019-02-28T03:19:38.640Z,53.60
2019-02-28T03:20:41.132Z,54.60
2019-02-28T03:21:38.633Z,54.50
2019-02-28T03:22:38.607Z,54.30
2019-02-28T03:23:40.553Z,54.60
2019-02-28T03:24:38.574Z,55.40
2019-02-28T03:25:38.585Z,55.80
2019-02-28T03:26:41.856Z,54.20
2019-02-28T03:27:38.604Z,56.50
2019-02-28T03:28:38.584Z,56.30
2019-02-28T03:29:43.417Z,55.40
2019-02-28T03:30:39.545Z,55.30
2019-02-28T03:31:38.517Z,56.40
2019-02-28T03:32:41.979Z,56.70
2019-02-28T03:33:38.504Z,56.00
2019-02-28T03:34:38.514Z,57.50
2019-02-28T03:35:43.198Z,56.90
2019-02-28T03:36:39.483Z,57.40
2019-02-28T03:37:38.462Z,57.60
2019-02-28T03:38:38.506Z,57.30
2019-02-28T03:39:38.475Z,57.90
2019-02-28T03:40:40.445Z,57.60
2019-02-28T03:41:38.397Z,57.90
2019-02-28T03:42:38.383Z,57.60
2019-02-28T03:43:43.882Z,57.90
2019-02-28T03:44:39.425Z,58.00
2019-02-28T03:45:38.372Z,58.70
2019-02-28T03:46:38.364Z,58.90
2019-02-28T03:47:38.332Z,59.70
2019-02-28T03:48:38.329Z,59.50
2019-02-28T03:49:38.333Z,59.70
2019-02-28T03:50:38.321Z,60.70
2019-02-28T03:51:38.283Z,57.90
2019-02-28T03:52:42.778Z,59.20
2019-02-28T03:53:39.293Z,59.80
2019-02-28T03:54:38.285Z,61.10
2019-02-28T03:55:40.665Z,60.00
2019-02-28T03:56:38.252Z,60.60
2019-02-28T03:57:38.232Z,59.50
2019-02-28T03:58:42.896Z,60.80
2019-02-28T03:59:38.206Z,60.30
2019-02-28T04:00:38.216Z,61.10
2019-02-28T04:01:44.790Z,60.50
2019-02-28T04:02:39.235Z,61.40
2019-02-28T04:03:38.169Z,62.90
2019-02-28T04:04:38.199Z,60.20
2019-02-28T04:05:38.183Z,61.10
2019-02-28T04:06:40.835Z,61.30
2019-02-28T04:07:38.137Z,62.60
2019-02-28T04:08:38.127Z,64.20
2019-02-28T04:09:43.755Z,63.60
2019-02-28T04:10:39.130Z,63.30
2019-02-28T04:11:38.116Z,63.40
2019-02-28T04:12:45.133Z,63.50
2019-02-28T04:13:39.050Z,63.10
2019-02-28T04:14:38.056Z,64.10
2019-02-28T04:15:38.084Z,63.10
2019-02-28T04:16:38.099Z,62.90
2019-02-28T04:17:38.028Z,62.70
2019-02-28T04:18:44.344Z,62.10
2019-02-28T04:19:39.023Z,63.80
2019-02-28T04:20:38.133Z,63.70
2019-02-28T04:21:37.982Z,62.70
2019-02-28T04:22:37.984Z,63.50
2019-02-28T04:23:37.953Z,65.60
2019-02-28T04:24:37.939Z,66.50
2019-02-28T04:25:37.930Z,64.40
2019-02-28T04:26:37.942Z,65.50
2019-02-28T04:27:40.590Z,61.90
2019-02-28T04:28:37.923Z,63.80
2019-02-28T04:29:37.899Z,64.20
2019-02-28T04:30:42.629Z,66.10
2019-02-28T04:31:38.866Z,64.90
2019-02-28T04:32:37.891Z,66.70
2019-02-28T04:33:39.260Z,64.80
2019-02-28T04:34:37.840Z,68.10
2019-02-28T04:35:37.820Z,66.40
2019-02-28T04:36:37.819Z,65.20
2019-02-28T04:37:44.797Z,63.80
2019-02-28T04:38:38.867Z,66.60
2019-02-28T04:39:37.794Z,66.90
2019-02-28T04:40:37.795Z,67.60
2019-02-28T04:41:37.756Z,67.40
2019-02-28T04:42:37.760Z,68.60
2019-02-28T04:43:37.735Z,67.90
2019-02-28T04:44:37.780Z,67.10
2019-02-28T04:45:37.716Z,67.50
2019-02-28T04:46:37.698Z,68.60
2019-02-28T04:47:40.523Z,70.00
2019-02-28T04:48:37.676Z,69.40
2019-02-28T04:49:37.695Z,69.40
2019-02-28T04:50:37.724Z,70.00
2019-02-28T04:51:40.169Z,68.40
2019-02-28T04:52:37.687Z,69.80
2019-02-28T04:53:37.629Z,69.30
2019-02-28T04:54:37.615Z,68.00
2019-02-28T04:55:37.993Z,68.50
2019-02-28T04:56:37.628Z,70.80
2019-02-28T04:57:37.585Z,70.50
2019-02-28T04:58:37.580Z,70.80
2019-02-28T04:59:37.589Z,70.80
2019-02-28T05:00:38.074Z,69.40
2019-02-28T05:01:37.574Z,69.30
2019-02-28T05:02:37.531Z,69.30
2019-02-28T05:03:37.520Z,70.00
2019-02-28T05:04:37.508Z,69.60
2019-02-28T05:05:37.613Z,70.10
2019-02-28T05:06:37.496Z,70.70
2019-02-28T05:07:37.517Z,72.10
2019-02-28T05:08:38.946Z,69.80
2019-02-28T05:09:37.476Z,72.10
2019-02-28T05:10:37.484Z,71.70
2019-02-28T05:11:37.445Z,73.30
2019-02-28T05:12:39.742Z,72.90
2019-02-28T05:13:37.414Z,73.80
2019-02-28T05:14:37.415Z,71.20
2019-02-28T05:15:39.494Z,71.10
2019-02-28T05:16:37.382Z,72.60
2019-02-28T05:17:37.383Z,73.40
2019-02-28T05:18:37.413Z,73.90
2019-02-28T05:19:37.423Z,74.60
2019-02-28T05:20:37.390Z,72.40
2019-02-28T05:21:37.331Z,73.10
2019-02-28T05:22:37.343Z,71.70
2019-02-28T05:23:37.363Z,71.50
2019-02-28T05:24:39.475Z,74.70
2019-02-28T05:25:38.325Z,74.70
2019-02-28T05:26:37.298Z,75.00
2019-02-28T05:27:37.273Z,72.30
2019-02-28T05:28:40.299Z,76.30
2019-02-28T05:29:37.253Z,73.00
2019-02-28T05:30:37.273Z,73.50
2019-02-28T05:31:37.232Z,74.40
2019-02-28T05:32:37.310Z,76.80
2019-02-28T05:33:38.314Z,75.70
2019-02-28T05:34:37.222Z,75.10
2019-02-28T05:35:37.180Z,76.80
2019-02-28T05:36:37.926Z,76.00
2019-02-28T05:37:37.188Z,75.40
2019-02-28T05:38:37.160Z,76.30
2019-02-28T05:39:37.197Z,76.40
2019-02-28T05:40:40.486Z,74.90
2019-02-28T05:41:37.136Z,76.70
2019-02-28T05:42:37.110Z,78.60
2019-02-28T05:43:37.111Z,76.90
2019-02-28T05:44:37.463Z,77.80
2019-02-28T05:45:37.108Z,78.70
2019-02-28T05:46:37.088Z,74.50
2019-02-28T05:47:45.831Z,74.60
2019-02-28T05:48:38.602Z,75.00
2019-02-28T05:49:37.035Z,76.90
2019-02-28T05:50:37.069Z,80.30
2019-02-28T05:51:37.040Z,79.00
2019-02-28T05:52:37.003Z,76.90
2019-02-28T05:53:37.056Z,74.80
2019-02-28T05:54:36.995Z,76.90
2019-02-28T05:55:36.975Z,77.80
2019-02-28T05:56:37.009Z,77.70
2019-02-28T05:57:39.342Z,75.30
2019-02-28T05:58:37.955Z,77.10
2019-02-28T05:59:36.945Z,78.10
2019-02-28T06:00:37.756Z,75.10
2019-02-28T06:01:36.940Z,78.10
2019-02-28T06:02:36.909Z,77.40
2019-02-28T06:03:36.890Z,77.70
2019-02-28T06:04:37.779Z,77.70
2019-02-28T06:05:38.843Z,77.10
2019-02-28T06:06:36.885Z,76.90
2019-02-28T06:07:36.871Z,75.60
2019-02-28T06:08:39.221Z,79.40
2019-02-28T06:09:36.962Z,78.40
2019-02-28T06:10:36.822Z,76.60
2019-02-28T06:11:36.824Z,79.50
2019-02-28T06:12:36.845Z,79.10
2019-02-28T06:13:37.152Z,77.90
2019-02-28T06:14:36.785Z,79.00
2019-02-28T06:15:37.198Z,77.80
2019-02-28T06:16:36.756Z,81.60
2019-02-28T06:17:36.835Z,80.00
2019-02-28T06:18:36.767Z,80.00
2019-02-28T06:19:36.746Z,81.30
2019-02-28T06:20:36.725Z,82.10
2019-02-28T06:21:36.737Z,80.90
2019-02-28T06:22:36.714Z,80.30
2019-02-28T06:23:36.691Z,80.10
2019-02-28T06:24:36.691Z,80.10
2019-02-28T06:25:36.655Z,83.00
2019-02-28T06:26:36.704Z,83.20
2019-02-28T06:27:41.681Z,82.60
2019-02-28T06:28:37.641Z,81.80
2019-02-28T06:29:37.516Z,85.30
2019-02-28T06:30:36.610Z,82.40
2019-02-28T06:31:36.650Z,83.70
2019-02-28T06:32:36.603Z,84.60
2019-02-28T06:33:36.581Z,86.10
2019-02-28T06:34:39.436Z,83.20
2019-02-28T06:35:37.577Z,86.60
2019-02-28T06:36:36.557Z,84.50
2019-02-28T06:37:38.399Z,84.90
2019-02-28T06:38:36.544Z,84.30
2019-02-28T06:39:37.565Z,87.40
2019-02-28T06:40:36.592Z,85.00
2019-02-28T06:41:39.965Z,86.10
2019-02-28T06:42:36.488Z,87.80
2019-02-28T06:43:36.479Z,88.60
2019-02-28T06:44:36.466Z,87.80
2019-02-28T06:45:37.688Z,88.60
2019-02-28T06:46:39.755Z,89.10
2019-02-28T06:47:36.424Z,86.90
2019-02-28T06:48:36.431Z,88.60
2019-02-28T06:49:40.990Z,89.10
2019-02-28T06:50:37.424Z,88.70
2019-02-28T06:51:36.439Z,88.30
2019-02-28T06:52:36.391Z,88.40
2019-02-28T06:53:36.429Z,90.10
2019-02-28T06:54:36.366Z,89.50
2019-02-28T06:55:36.367Z,89.10
2019-02-28T06:56:36.347Z,93.00
2019-02-28T06:57:36.338Z,94.60
2019-02-28T06:58:36.324Z,94.30
2019-02-28T06:59:39.037Z,94.60
2019-02-28T07:00:36.311Z,92.30
2019-02-28T07:01:36.331Z,93.00
2019-02-28T07:02:36.375Z,94.00
2019-02-28T07:03:38.930Z,94.10
2019-02-28T07:04:36.249Z,99.80
2019-02-28T07:05:36.272Z,98.20
2019-02-28T07:06:36.634Z,100.20
2019-02-28T07:07:36.227Z,103.10
2019-02-28T07:08:36.236Z,102.00
2019-02-28T07:09:36.409Z,103.70
2019-02-28T07:10:36.217Z,103.40
2019-02-28T07:11:36.199Z,102.00
2019-02-28T07:12:36.179Z,101.60
2019-02-28T07:13:39.276Z,103.80
2019-02-28T07:14:36.224Z,104.40
2019-02-28T07:15:36.142Z,104.10
2019-02-28T07:16:37.855Z,102.60
2019-02-28T07:17:36.203Z,103.00
2019-02-28T07:18:36.118Z,104.40
2019-02-28T07:19:36.096Z,105.30
2019-02-28T07:20:36.189Z,108.30
2019-02-28T07:21:36.083Z,105.70
2019-02-28T07:22:36.064Z,109.30
2019-02-28T07:23:36.159Z,108.10
2019-02-28T07:24:37.438Z,107.60
2019-02-28T07:25:36.033Z,107.30
2019-02-28T07:26:36.021Z,106.20
2019-02-28T07:27:36.009Z,104.20
2019-02-28T07:28:37.482Z,106.00
2019-02-28T07:29:36.032Z,103.70
2019-02-28T07:30:35.982Z,105.00
2019-02-28T07:31:36.012Z,101.80
2019-02-28T07:32:35.957Z,103.00
2019-02-28T07:33:35.948Z,103.90
2019-02-28T07:34:35.935Z,99.40
2019-02-28T07:35:36.878Z,100.40
2019-02-28T07:36:35.914Z,102.00
2019-02-28T07:37:35.917Z,100.50
2019-02-28T07:38:35.911Z,101.90
2019-02-28T07:39:36.517Z,101.10
2019-02-28T07:40:35.899Z,103.30
2019-02-28T07:41:35.914Z,101.80
2019-02-28T07:42:37.633Z,103.10
2019-02-28T07:43:35.851Z,101.20
2019-02-28T07:44:38.014Z,99.70
2019-02-28T07:45:35.850Z,99.20
2019-02-28T07:46:38.701Z,99.60
2019-02-28T07:47:36.806Z,98.90
2019-02-28T07:48:35.794Z,99.60
2019-02-28T07:49:36.934Z,97.80
2019-02-28T07:50:35.777Z,96.30
2019-02-28T07:51:35.792Z,98.10
2019-02-28T07:52:35.761Z,92.90
2019-02-28T07:53:35.770Z,94.70
2019-02-28T07:54:35.729Z,95.20
2019-02-28T07:55:35.760Z,92.90
2019-02-28T07:56:42.666Z,92.00
2019-02-28T07:57:36.722Z,92.20
2019-02-28T07:58:35.677Z,92.10
2019-02-28T07:59:40.946Z,92.90
2019-02-28T08:00:36.659Z,92.20
2019-02-28T08:01:35.684Z,94.40
2019-02-28T08:02:39.210Z,94.30
2019-02-28T08:03:35.673Z,90.90
2019-02-28T08:04:35.609Z,92.20
2019-02-28T08:05:35.604Z,90.60
2019-02-28T08:06:36.318Z,91.60
2019-02-28T08:07:35.629Z,93.40
2019-02-28T08:08:35.603Z,94.30
2019-02-28T08:09:36.759Z,90.80
2019-02-28T08:10:36.595Z,94.80
2019-02-28T08:11:35.545Z,90.20
2019-02-28T08:12:35.551Z,88.90
2019-02-28T08:13:37.893Z,91.40
2019-02-28T08:14:35.525Z,89.80
2019-02-28T08:15:35.493Z,88.80
2019-02-28T08:16:35.483Z,91.90
2019-02-28T08:17:35.490Z,88.50
2019-02-28T08:18:35.478Z,87.60
2019-02-28T08:19:35.505Z,88.50
2019-02-28T08:20:35.455Z,90.40
2019-02-28T08:21:35.479Z,89.60
2019-02-28T08:22:35.438Z,90.60
2019-02-28T08:23:37.403Z,88.80
2019-02-28T08:24:36.085Z,91.40
2019-02-28T08:25:35.547Z,86.10
2019-02-28T08:26:35.408Z,88.00
2019-02-28T08:27:35.368Z,86.40
2019-02-28T08:28:36.715Z,84.40
2019-02-28T08:29:35.363Z,87.30
2019-02-28T08:30:35.337Z,86.70
2019-02-28T08:31:35.343Z,85.70
2019-02-28T08:32:35.321Z,81.00
2019-02-28T08:33:35.368Z,85.20
2019-02-28T08:34:35.302Z,82.50
2019-02-28T08:35:35.900Z,81.00
2019-02-28T08:36:35.322Z,78.40
2019-02-28T08:37:35.293Z,75.60
2019-02-28T08:38:35.266Z,73.20
2019-02-28T08:39:35.311Z,75.30
2019-02-28T08:40:35.236Z,72.10
2019-02-28T08:41:35.222Z,72.50
2019-02-28T08:42:38.468Z,71.20
2019-02-28T08:43:35.219Z,69.90
2019-02-28T08:44:35.200Z,67.60
2019-02-28T08:45:35.203Z,69.00
2019-02-28T08:46:35.168Z,66.00
2019-02-28T08:47:35.167Z,64.30
2019-02-28T08:48:35.313Z,62.50
2019-02-28T08:49:35.165Z,64.70
2019-02-28T08:50:35.170Z,62.90
2019-02-28T08:51:35.111Z,61.40
2019-02-28T08:52:37.594Z,59.70
2019-02-28T08:53:36.126Z,62.20
2019-02-28T08:54:35.093Z,61.10
2019-02-28T08:55:38.390Z,62.10
2019-02-28T08:56:35.065Z,59.20
2019-02-28T08:57:35.065Z,58.70
2019-02-28T08:58:37.769Z,60.60
2019-02-28T08:59:35.067Z,58.20
2019-02-28T09:00:35.039Z,56.90
2019-02-28T09:01:40.025Z,55.40
2019-02-28T09:02:36.072Z,55.40
2019-02-28T09:03:34.992Z,53.40
2019-02-28T09:04:41.299Z,52.00
2019-02-28T09:05:36.009Z,53.20
2019-02-28T09:06:37.896Z,51.20
2019-02-28T09:07:35.972Z,52.30
2019-02-28T09:08:34.934Z,52.80
2019-02-28T09:09:35.344Z,51.80
2019-02-28T09:10:34.919Z,48.90
2019-02-28T09:11:34.904Z,50.20
2019-02-28T09:12:34.947Z,49.20
2019-02-28T09:13:34.908Z,46.60
2019-02-28T09:14:34.873Z,47.20
2019-02-28T09:15:34.889Z,48.00
2019-02-28T09:16:36.670Z,46.30
2019-02-28T09:17:34.882Z,47.60
2019-02-28T09:18:34.898Z,46.00
2019-02-28T09:19:36.023Z,46.80
2019-02-28T09:20:34.922Z,45.70
2019-02-28T09:21:34.801Z,44.60
2019-02-28T09:22:34.893Z,44.90
2019-02-28T09:23:37.563Z,44.50
2019-02-28T09:24:34.900Z,46.60
2019-02-28T09:25:34.756Z,45.20
2019-02-28T09:26:34.744Z,45.10
2019-02-28T09:27:35.280Z,44.00
2019-02-28T09:28:34.732Z,43.10
2019-02-28T09:29:34.816Z,42.90
2019-02-28T09:30:34.797Z,42.90
2019-02-28T09:31:38.686Z,42.50
2019-02-28T09:32:34.679Z,40.90
2019-02-28T09:33:34.710Z,41.90
2019-02-28T09:34:34.689Z,41.70
2019-02-28T09:35:34.663Z,39.70
2019-02-28T09:36:34.641Z,39.60
2019-02-28T09:37:34.627Z,40.90
2019-02-28T09:38:34.623Z,40.00
2019-02-28T09:39:34.630Z,36.10
2019-02-28T09:40:34.620Z,37.00
2019-02-28T09:41:36.492Z,37.00
2019-02-28T09:42:35.614Z,34.70
2019-02-28T09:43:34.572Z,36.10
2019-02-28T09:44:34.551Z,35.70
2019-02-28T09:45:34.558Z,34.70
2019-02-28T09:46:34.547Z,34.30
2019-02-28T09:47:34.527Z,35.50
2019-02-28T09:48:37.104Z,32.90
2019-02-28T09:49:34.557Z,31.20
2019-02-28T09:50:34.499Z,32.10
2019-02-28T09:51:34.496Z,30.80
2019-02-28T09:52:34.507Z,30.70
2019-02-28T09:53:34.501Z,30.30
2019-02-28T09:54:34.447Z,29.50
2019-02-28T09:55:35.510Z,29.10
2019-02-28T09:56:34.434Z,29.80
2019-02-28T09:57:34.459Z,29.70
2019-02-28T09:58:34.410Z,30.20
2019-02-28T09:59:37.829Z,29.90
2019-02-28T10:00:34.398Z,29.60
2019-02-28T10:01:34.367Z,29.30
2019-02-28T10:02:34.370Z,30.40
2019-02-28T10:03:34.724Z,30.00
2019-02-28T10:04:34.354Z,30.50
2019-02-28T10:05:34.370Z,31.10
2019-02-28T10:06:34.320Z,31.50
2019-02-28T10:07:34.300Z,31.00
2019-02-28T10:08:36.923Z,29.40
2019-02-28T10:09:34.278Z,29.70
2019-02-28T10:10:34.297Z,30.30
2019-02-28T10:11:34.262Z,29.10
2019-02-28T10:12:34.270Z,30.40
2019-02-28T10:13:34.247Z,29.50
2019-02-28T10:14:34.686Z,30.50
2019-02-28T10:15:34.225Z,27.00
2019-02-28T10:16:34.237Z,28.10
2019-02-28T10:17:34.196Z,29.00
2019-02-28T10:18:35.583Z,27.90
2019-02-28T10:19:42.799Z,27.70
2019-02-28T10:20:35.198Z,28.60
2019-02-28T10:21:36.475Z,28.50
2019-02-28T10:22:34.151Z,26.30
2019-02-28T10:23:34.138Z,27.90
2019-02-28T10:24:34.179Z,28.30
2019-02-28T10:25:34.136Z,27.90
2019-02-28T10:26:34.111Z,28.30
2019-02-28T10:27:34.113Z,27.80
2019-02-28T10:28:34.081Z,28.00
2019-02-28T10:29:34.074Z,27.40
2019-02-28T10:30:34.064Z,27.60
2019-02-28T10:31:38.019Z,27.70
2019-02-28T10:32:34.040Z,26.50
2019-02-28T10:33:34.049Z,27.10
2019-02-28T10:34:35.413Z,27.70
2019-02-28T10:35:36.959Z,27.90
2019-02-28T10:36:34.013Z,26.90
2019-02-28T10:37:35.603Z,25.60
2019-02-28T10:38:34.003Z,26.60
2019-02-28T10:39:33.986Z,26.70
2019-02-28T10:40:33.958Z,27.30
2019-02-28T10:41:33.940Z,25.70
2019-02-28T10:42:33.930Z,25.80
2019-02-28T10:43:33.931Z,25.90
2019-02-28T10:44:33.948Z,25.70
2019-02-28T10:45:33.913Z,27.00
2019-02-28T10:46:35.987Z,26.70
2019-02-28T10:47:33.874Z,26.50
2019-02-28T10:48:35.287Z,26.50
2019-02-28T10:49:33.852Z,25.00
2019-02-28T10:50:33.862Z,25.70
2019-02-28T10:51:33.829Z,25.40
2019-02-28T10:52:33.835Z,27.00
2019-02-28T10:53:36.232Z,25.00
2019-02-28T10:54:34.805Z,25.00
2019-02-28T10:55:33.787Z,25.70
2019-02-28T10:56:33.785Z,26.30
2019-02-28T10:57:33.758Z,27.10
2019-02-28T10:58:33.771Z,27.30
2019-02-28T10:59:33.771Z,28.20
2019-02-28T11:00:33.811Z,27.10
2019-02-28T11:01:33.779Z,27.30
2019-02-28T11:02:33.724Z,26.60
2019-02-28T11:03:33.701Z,26.30
2019-02-28T11:04:33.685Z,26.80
2019-02-28T11:05:33.693Z,24.80
2019-02-28T11:06:33.671Z,25.90
2019-02-28T11:07:34.244Z,25.70
2019-02-28T11:08:33.668Z,24.90
2019-02-28T11:09:33.647Z,26.50
2019-02-28T11:10:35.505Z,27.30
2019-02-28T11:11:33.620Z,25.40
2019-02-28T11:12:33.604Z,25.70
2019-02-28T11:13:33.599Z,26.20
2019-02-28T11:14:35.533Z,26.40
2019-02-28T11:15:34.598Z,26.10
2019-02-28T11:16:33.571Z,23.50
2019-02-28T11:17:34.315Z,23.90
2019-02-28T11:18:33.544Z,25.40
2019-02-28T11:19:33.529Z,23.90
2019-02-28T11:20:33.572Z,24.10
2019-02-28T11:21:33.547Z,23.70
2019-02-28T11:22:36.499Z,23.50
2019-02-28T11:23:34.496Z,24.30
2019-02-28T11:24:33.475Z,24.50
2019-02-28T11:25:35.548Z,24.30
2019-02-28T11:26:33.483Z,24.30
2019-02-28T11:27:33.441Z,24.40
2019-02-28T11:28:33.434Z,23.70
2019-02-28T11:29:35.179Z,24.10
2019-02-28T11:30:33.430Z,24.80
2019-02-28T11:31:33.402Z,24.00
2019-02-28T11:32:33.428Z,24.20
2019-02-28T11:33:33.389Z,24.40
2019-02-28T11:34:33.393Z,24.70
2019-02-28T11:35:33.357Z,25.00
2019-02-28T11:36:34.129Z,23.80
2019-02-28T11:37:33.368Z,24.60
2019-02-28T11:38:33.338Z,25.00
2019-02-28T11:39:33.810Z,24.30
2019-02-28T11:40:33.295Z,23.60
2019-02-28T11:41:33.385Z,24.40
2019-02-28T11:42:33.287Z,23.90
2019-02-28T11:43:37.242Z,21.80
2019-02-28T11:44:34.270Z,23.30
2019-02-28T11:45:33.248Z,22.30
2019-02-28T11:46:36.553Z,21.60
2019-02-28T11:47:33.254Z,24.10
2019-02-28T11:48:33.271Z,22.20
2019-02-28T11:49:33.196Z,24.20
2019-02-28T11:50:33.189Z,22.70
2019-02-28T11:51:33.207Z,23.10
2019-02-28T11:52:33.190Z,23.30
2019-02-28T11:53:33.274Z,22.70
2019-02-28T11:54:33.179Z,22.10
2019-02-28T11:55:33.150Z,21.10
2019-02-28T11:56:33.144Z,22.10
2019-02-28T11:57:33.111Z,22.00
2019-02-28T11:58:33.144Z,20.90
2019-02-28T11:59:33.110Z,20.80
2019-02-28T12:00:35.643Z,20.10
2019-02-28T12:01:33.120Z,20.00
2019-02-28T12:02:33.066Z,20.50
2019-02-28T12:03:35.455Z,20.10
2019-02-28T12:04:33.072Z,20.70
2019-02-28T12:05:33.044Z,21.60
2019-02-28T12:06:33.042Z,20.50
2019-02-28T12:07:34.885Z,21.00
2019-02-28T12:08:33.021Z,20.10
2019-02-28T12:09:32.986Z,21.70
2019-02-28T12:10:32.993Z,22.60
2019-02-28T12:11:33.539Z,21.80
2019-02-28T12:12:32.974Z,22.40
2019-02-28T12:13:32.947Z,21.80
2019-02-28T12:14:33.176Z,22.30
2019-02-28T12:15:32.944Z,22.10
2019-02-28T12:16:32.911Z,21.70
2019-02-28T12:17:32.922Z,23.00
2019-02-28T12:18:32.929Z,22.00
2019-02-28T12:19:32.877Z,23.60
2019-02-28T12:20:33.390Z,22.00
2019-02-28T12:21:37.654Z,22.00
2019-02-28T12:22:33.855Z,22.40
2019-02-28T12:23:32.849Z,23.00
2019-02-28T12:24:33.244Z,23.30
2019-02-28T12:25:32.807Z,22.60
2019-02-28T12:26:32.844Z,23.10
2019-02-28T12:27:32.795Z,23.20
2019-02-28T12:28:35.221Z,21.70
2019-02-28T12:29:33.762Z,23.20
2019-02-28T12:30:32.788Z,22.40
2019-02-28T12:31:35.597Z,23.90
2019-02-28T12:32:32.736Z,22.50
2019-02-28T12:33:32.739Z,21.80
2019-02-28T12:34:32.866Z,20.90
2019-02-28T12:35:37.445Z,21.50
2019-02-28T12:36:33.716Z,21.90
2019-02-28T12:37:34.381Z,21.80
2019-02-28T12:38:32.670Z,20.70
2019-02-28T12:39:33.342Z,21.00
2019-02-28T12:40:32.655Z,21.30
2019-02-28T12:41:32.701Z,21.60
2019-02-28T12:42:34.647Z,21.20
2019-02-28T12:43:32.616Z,21.50
2019-02-28T12:44:32.610Z,22.10
2019-02-28T12:45:32.613Z,22.40
2019-02-28T12:46:32.785Z,21.60
2019-02-28T12:47:32.638Z,22.30
2019-02-28T12:48:32.588Z,23.00
2019-02-28T12:49:32.549Z,21.60
2019-02-28T12:50:32.566Z,22.90
2019-02-28T12:51:32.569Z,22.40